Quick Links (Output Below):   Max & Min Temps   /   Climate Reports   /   Zone Forecasts
River Forecasts   /   Forestry Forecasts   /   Aviation Forecasts   /   Radars   /   Features

Terminal Aerodrome Forecast (Little Rock)

Pick a Site:
Arkadelphia | El Dorado | Fayetteville | Fort Smith | Harrison | Highfill | Hot Springs | Jonesboro
Little Rock | Monticello | Mountain Home | Pine Bluff | Texarkana
 Forecast 

KLIT 231737Z 2318/2418 18010KT 5SM -RA OVC010
      TEMPO 2318/2322 3SM -RA BR OVC006
     FM232200 19008KT 6SM BR OVC015
     FM240300 23012G22KT P6SM OVC015
     FM240600 27018G28KT P6SM OVC020
     FM241300 26018G28KT P6SM SCT030=


 Latest METARs (Observations) 
How to Decode METARs
20Z KLIT 231953Z 18006KT 10SM BKN006 OVC075 17/15 A2937 RMK AO2 RAE45
         SLP946 P0005 T01670150
         
19Z KLIT 231853Z 16006KT 9SM -RA BKN006 OVC016 16/14 A2941 RMK AO2
         SLP959 P0005 T01610144
         
18Z KLIT 231753Z 15006KT 10SM -RA OVC006 16/14 A2944 RMK AO2 PRESFR
         SLP971 P0005 60038 T01610139 10161 20144 58051
         
17Z KLIT 231653Z 15007KT 5SM -RA BR OVC006 16/14 A2952 RMK AO2 SLP998
         P0007 T01560139
         
16Z KLIT 231553Z COR 16007KT 5SM -RA BR BKN006 OVC010 16/14 A2956 RMK
         AO2 CIG 004V009 SLP011 P0012 T01560139
         
15Z KLIT 231453Z 15010KT 2SM -RA BR OVC006 15/13 A2960 RMK AO2 SFC VIS
         2 1/2 SLP023 P0008 60014 T01500133 58027
         
14Z KLIT 231353Z 15010KT 2SM -RA BR OVC006 15/13 A2963 RMK AO2 SFC VIS
         2 1/2 SLP036 P0004 T01500128
         
13Z KLIT 231253Z 15008KT 3SM -RA BR OVC005 14/13 A2965 RMK AO2 SLP043
         P0002 T01440128
         
12Z KLIT 231153Z 15011G18KT 5SM -RA BR OVC005 14/12 A2968 RMK AO2
         SLP051 P0001 60010 70010 T01440122 10156 20139 58014
         
11Z KLIT 231053Z 14011G19KT 5SM -RA BR OVC007 14/12 A2969 RMK AO2
         SLP055 P0004 T01440122
         
***** Today's Observations (Above) *****


Back to Main Page
http://www.srh.noaa.gov/lzk/qfcst.php

USA.gov is the U.S. government's official web portal to all federal, state and local government web resources and services.